sensor_id;sensor_type;location;lat;lon;timestamp;P1;durP1;ratioP1;P2;durP2;ratioP2
76850;SDS011;65824;43.726;20.692;2023-02-15T00:00:44;28.48;;;15.57;;
76850;SDS011;65824;43.726;20.692;2023-02-15T00:03:10;36.70;;;17.02;;
76850;SDS011;65824;43.726;20.692;2023-02-15T00:05:36;32.65;;;15.90;;
76850;SDS011;65824;43.726;20.692;2023-02-15T00:08:01;30.27;;;14.88;;
76850;SDS011;65824;43.726;20.692;2023-02-15T00:10:27;35.47;;;17.52;;
76850;SDS011;65824;43.726;20.692;2023-02-15T00:12:53;33.00;;;17.38;;
76850;SDS011;65824;43.726;20.692;2023-02-15T00:15:19;33.70;;;16.65;;
76850;SDS011;65824;43.726;20.692;2023-02-15T00:17:46;34.58;;;17.67;;
76850;SDS011;65824;43.726;20.692;2023-02-15T00:20:13;35.75;;;16.92;;
76850;SDS011;65824;43.726;20.692;2023-02-15T00:22:39;34.78;;;17.63;;
76850;SDS011;65824;43.726;20.692;2023-02-15T00:25:07;31.10;;;17.13;;
76850;SDS011;65824;43.726;20.692;2023-02-15T00:27:35;30.65;;;16.23;;
76850;SDS011;65824;43.726;20.692;2023-02-15T00:30:04;27.77;;;15.52;;
76850;SDS011;65824;43.726;20.692;2023-02-15T00:32:31;30.23;;;15.85;;
76850;SDS011;65824;43.726;20.692;2023-02-15T00:34:58;32.65;;;16.77;;
76850;SDS011;65824;43.726;20.692;2023-02-15T00:37:23;29.23;;;15.82;;
76850;SDS011;65824;43.726;20.692;2023-02-15T00:39:49;28.73;;;15.23;;
76850;SDS011;65824;43.726;20.692;2023-02-15T00:42:15;32.00;;;16.63;;
76850;SDS011;65824;43.726;20.692;2023-02-15T00:44:41;32.53;;;16.60;;
76850;SDS011;65824;43.726;20.692;2023-02-15T00:47:08;32.47;;;17.15;;
76850;SDS011;65824;43.726;20.692;2023-02-15T00:49:35;29.45;;;16.25;;
76850;SDS011;65824;43.726;20.692;2023-02-15T00:52:00;32.45;;;16.55;;
76850;SDS011;65824;43.726;20.692;2023-02-15T00:54:27;30.90;;;17.15;;
76850;SDS011;65824;43.726;20.692;2023-02-15T00:56:53;33.17;;;17.27;;
76850;SDS011;65824;43.726;20.692;2023-02-15T00:59:18;31.13;;;16.23;;
76850;SDS011;65824;43.726;20.692;2023-02-15T01:01:45;32.63;;;17.13;;
76850;SDS011;65824;43.726;20.692;2023-02-15T01:04:11;33.83;;;17.98;;
76850;SDS011;65824;43.726;20.692;2023-02-15T01:06:37;36.20;;;17.92;;
76850;SDS011;65824;43.726;20.692;2023-02-15T01:09:05;32.83;;;17.20;;
76850;SDS011;65824;43.726;20.692;2023-02-15T01:11:30;33.17;;;17.90;;
76850;SDS011;65824;43.726;20.692;2023-02-15T01:13:56;31.17;;;17.55;;
76850;SDS011;65824;43.726;20.692;2023-02-15T01:16:23;33.85;;;16.50;;
76850;SDS011;65824;43.726;20.692;2023-02-15T01:18:51;32.28;;;17.33;;
76850;SDS011;65824;43.726;20.692;2023-02-15T01:21:18;37.22;;;18.10;;
76850;SDS011;65824;43.726;20.692;2023-02-15T01:23:45;37.90;;;17.65;;
76850;SDS011;65824;43.726;20.692;2023-02-15T01:26:11;34.20;;;18.23;;
76850;SDS011;65824;43.726;20.692;2023-02-15T01:28:39;36.58;;;17.98;;
76850;SDS011;65824;43.726;20.692;2023-02-15T01:31:06;37.42;;;19.23;;
76850;SDS011;65824;43.726;20.692;2023-02-15T01:33:34;34.70;;;17.67;;
76850;SDS011;65824;43.726;20.692;2023-02-15T01:36:00;34.35;;;17.58;;
76850;SDS011;65824;43.726;20.692;2023-02-15T01:38:26;33.90;;;17.48;;
76850;SDS011;65824;43.726;20.692;2023-02-15T01:40:53;34.42;;;18.05;;
76850;SDS011;65824;43.726;20.692;2023-02-15T01:43:40;35.03;;;18.42;;
76850;SDS011;65824;43.726;20.692;2023-02-15T01:46:07;33.97;;;17.17;;
76850;SDS011;65824;43.726;20.692;2023-02-15T01:48:36;38.55;;;19.27;;
76850;SDS011;65824;43.726;20.692;2023-02-15T01:51:08;36.60;;;17.63;;
76850;SDS011;65824;43.726;20.692;2023-02-15T01:53:38;36.72;;;17.23;;
76850;SDS011;65824;43.726;20.692;2023-02-15T01:56:14;38.25;;;17.48;;
76850;SDS011;65824;43.726;20.692;2023-02-15T01:58:42;33.53;;;17.00;;
76850;SDS011;65824;43.726;20.692;2023-02-15T02:01:08;33.78;;;17.50;;
76850;SDS011;65824;43.726;20.692;2023-02-15T02:06:23;35.03;;;17.98;;
76850;SDS011;65824;43.726;20.692;2023-02-15T02:08:49;34.42;;;16.88;;
76850;SDS011;65824;43.726;20.692;2023-02-15T02:11:15;33.45;;;16.70;;
76850;SDS011;65824;43.726;20.692;2023-02-15T02:13:41;35.28;;;18.08;;
76850;SDS011;65824;43.726;20.692;2023-02-15T02:24:07;37.35;;;17.80;;
76850;SDS011;65824;43.726;20.692;2023-02-15T02:32:52;30.20;;;15.93;;
76850;SDS011;65824;43.726;20.692;2023-02-15T02:43:04;28.45;;;14.27;;
76850;SDS011;65824;43.726;20.692;2023-02-15T02:45:42;27.58;;;13.25;;
76850;SDS011;65824;43.726;20.692;2023-02-15T02:48:11;29.63;;;14.43;;
76850;SDS011;65824;43.726;20.692;2023-02-15T02:50:40;30.17;;;14.82;;
76850;SDS011;65824;43.726;20.692;2023-02-15T02:53:06;26.58;;;14.23;;
76850;SDS011;65824;43.726;20.692;2023-02-15T02:55:36;27.42;;;13.80;;
76850;SDS011;65824;43.726;20.692;2023-02-15T02:58:08;31.80;;;15.60;;
76850;SDS011;65824;43.726;20.692;2023-02-15T03:00:41;27.90;;;14.45;;
76850;SDS011;65824;43.726;20.692;2023-02-15T03:03:29;31.48;;;15.77;;
76850;SDS011;65824;43.726;20.692;2023-02-15T03:06:20;30.00;;;15.55;;
76850;SDS011;65824;43.726;20.692;2023-02-15T03:09:04;32.35;;;16.08;;
76850;SDS011;65824;43.726;20.692;2023-02-15T03:11:43;30.42;;;16.73;;
76850;SDS011;65824;43.726;20.692;2023-02-15T03:14:09;33.33;;;16.45;;
76850;SDS011;65824;43.726;20.692;2023-02-15T03:16:36;31.30;;;16.10;;
76850;SDS011;65824;43.726;20.692;2023-02-15T03:19:08;31.27;;;15.68;;
76850;SDS011;65824;43.726;20.692;2023-02-15T03:21:40;47.28;;;16.95;;
76850;SDS011;65824;43.726;20.692;2023-02-15T03:24:31;33.85;;;15.73;;
76850;SDS011;65824;43.726;20.692;2023-02-15T03:27:22;29.95;;;16.15;;
76850;SDS011;65824;43.726;20.692;2023-02-15T03:29:53;28.38;;;14.80;;
76850;SDS011;65824;43.726;20.692;2023-02-15T03:32:21;30.42;;;15.00;;
76850;SDS011;65824;43.726;20.692;2023-02-15T03:34:48;27.02;;;14.40;;
76850;SDS011;65824;43.726;20.692;2023-02-15T03:43:13;24.35;;;12.93;;
76850;SDS011;65824;43.726;20.692;2023-02-15T03:45:42;22.63;;;12.30;;
76850;SDS011;65824;43.726;20.692;2023-02-15T03:48:26;22.05;;;11.52;;
76850;SDS011;65824;43.726;20.692;2023-02-15T03:50:58;22.70;;;11.27;;
76850;SDS011;65824;43.726;20.692;2023-02-15T03:53:47;21.77;;;11.13;;
76850;SDS011;65824;43.726;20.692;2023-02-15T03:56:13;20.85;;;11.10;;
76850;SDS011;65824;43.726;20.692;2023-02-15T03:58:39;22.17;;;10.30;;
76850;SDS011;65824;43.726;20.692;2023-02-15T04:01:34;21.40;;;10.85;;
76850;SDS011;65824;43.726;20.692;2023-02-15T04:04:23;21.00;;;10.40;;
76850;SDS011;65824;43.726;20.692;2023-02-15T04:06:57;22.48;;;10.43;;
76850;SDS011;65824;43.726;20.692;2023-02-15T04:09:23;21.52;;;10.93;;
76850;SDS011;65824;43.726;20.692;2023-02-15T04:12:07;23.85;;;10.20;;
76850;SDS011;65824;43.726;20.692;2023-02-15T04:14:34;22.95;;;11.10;;
76850;SDS011;65824;43.726;20.692;2023-02-15T04:17:18;23.45;;;11.73;;
76850;SDS011;65824;43.726;20.692;2023-02-15T04:19:43;23.42;;;11.05;;
76850;SDS011;65824;43.726;20.692;2023-02-15T04:22:27;24.10;;;10.82;;
76850;SDS011;65824;43.726;20.692;2023-02-15T04:25:11;20.60;;;10.25;;
76850;SDS011;65824;43.726;20.692;2023-02-15T04:27:43;20.90;;;10.10;;
76850;SDS011;65824;43.726;20.692;2023-02-15T04:30:15;20.70;;;10.40;;
76850;SDS011;65824;43.726;20.692;2023-02-15T04:32:43;22.20;;;10.38;;
76850;SDS011;65824;43.726;20.692;2023-02-15T04:35:09;19.90;;;10.18;;
76850;SDS011;65824;43.726;20.692;2023-02-15T04:37:37;20.92;;;10.93;;
76850;SDS011;65824;43.726;20.692;2023-02-15T04:40:06;21.52;;;11.10;;
76850;SDS011;65824;43.726;20.692;2023-02-15T04:42:32;22.08;;;11.35;;
76850;SDS011;65824;43.726;20.692;2023-02-15T04:44:58;21.63;;;10.73;;
76850;SDS011;65824;43.726;20.692;2023-02-15T04:47:27;23.92;;;11.63;;
76850;SDS011;65824;43.726;20.692;2023-02-15T04:49:53;25.25;;;11.13;;
76850;SDS011;65824;43.726;20.692;2023-02-15T04:52:18;24.63;;;12.13;;
76850;SDS011;65824;43.726;20.692;2023-02-15T04:54:46;24.83;;;12.57;;
76850;SDS011;65824;43.726;20.692;2023-02-15T04:57:12;21.40;;;11.30;;
76850;SDS011;65824;43.726;20.692;2023-02-15T04:59:41;24.75;;;11.90;;
76850;SDS011;65824;43.726;20.692;2023-02-15T05:02:07;26.20;;;12.90;;
76850;SDS011;65824;43.726;20.692;2023-02-15T05:04:33;21.98;;;11.32;;
76850;SDS011;65824;43.726;20.692;2023-02-15T05:06:59;22.85;;;11.50;;
76850;SDS011;65824;43.726;20.692;2023-02-15T05:09:25;20.38;;;10.30;;
76850;SDS011;65824;43.726;20.692;2023-02-15T05:11:50;23.30;;;10.80;;
76850;SDS011;65824;43.726;20.692;2023-02-15T05:14:16;22.25;;;10.75;;
76850;SDS011;65824;43.726;20.692;2023-02-15T05:16:41;21.92;;;11.05;;
76850;SDS011;65824;43.726;20.692;2023-02-15T05:19:06;22.45;;;11.23;;
76850;SDS011;65824;43.726;20.692;2023-02-15T05:21:32;24.63;;;11.32;;
76850;SDS011;65824;43.726;20.692;2023-02-15T05:23:58;25.00;;;11.68;;
76850;SDS011;65824;43.726;20.692;2023-02-15T05:26:24;22.83;;;11.88;;
76850;SDS011;65824;43.726;20.692;2023-02-15T05:29:08;23.17;;;11.57;;
76850;SDS011;65824;43.726;20.692;2023-02-15T05:31:36;24.20;;;11.57;;
76850;SDS011;65824;43.726;20.692;2023-02-15T05:34:02;22.77;;;11.73;;
76850;SDS011;65824;43.726;20.692;2023-02-15T05:36:27;23.83;;;11.70;;
76850;SDS011;65824;43.726;20.692;2023-02-15T05:38:57;21.88;;;12.20;;
76850;SDS011;65824;43.726;20.692;2023-02-15T05:41:23;23.63;;;10.85;;
76850;SDS011;65824;43.726;20.692;2023-02-15T05:43:49;22.42;;;12.35;;
76850;SDS011;65824;43.726;20.692;2023-02-15T05:46:14;26.88;;;13.35;;
76850;SDS011;65824;43.726;20.692;2023-02-15T05:48:41;26.77;;;13.75;;
76850;SDS011;65824;43.726;20.692;2023-02-15T05:51:08;25.33;;;13.30;;
76850;SDS011;65824;43.726;20.692;2023-02-15T05:53:37;25.25;;;13.40;;
76850;SDS011;65824;43.726;20.692;2023-02-15T05:56:04;24.20;;;13.05;;
76850;SDS011;65824;43.726;20.692;2023-02-15T05:58:37;22.30;;;12.35;;
76850;SDS011;65824;43.726;20.692;2023-02-15T06:01:17;26.08;;;11.93;;
76850;SDS011;65824;43.726;20.692;2023-02-15T06:03:44;24.67;;;13.25;;
76850;SDS011;65824;43.726;20.692;2023-02-15T06:06:11;27.60;;;14.20;;
76850;SDS011;65824;43.726;20.692;2023-02-15T06:08:37;28.88;;;15.18;;
76850;SDS011;65824;43.726;20.692;2023-02-15T06:11:04;26.27;;;13.63;;
76850;SDS011;65824;43.726;20.692;2023-02-15T06:13:30;24.38;;;13.70;;
76850;SDS011;65824;43.726;20.692;2023-02-15T06:15:55;26.33;;;12.68;;
76850;SDS011;65824;43.726;20.692;2023-02-15T06:18:21;30.55;;;14.60;;
76850;SDS011;65824;43.726;20.692;2023-02-15T06:20:47;29.00;;;15.75;;
76850;SDS011;65824;43.726;20.692;2023-02-15T06:23:13;40.53;;;19.00;;
76850;SDS011;65824;43.726;20.692;2023-02-15T06:25:39;41.45;;;19.85;;
76850;SDS011;65824;43.726;20.692;2023-02-15T06:28:05;38.78;;;19.05;;
76850;SDS011;65824;43.726;20.692;2023-02-15T06:30:31;43.60;;;19.65;;
76850;SDS011;65824;43.726;20.692;2023-02-15T06:32:57;41.92;;;20.95;;
76850;SDS011;65824;43.726;20.692;2023-02-15T06:35:22;44.35;;;20.23;;
76850;SDS011;65824;43.726;20.692;2023-02-15T06:37:49;40.42;;;20.85;;
76850;SDS011;65824;43.726;20.692;2023-02-15T06:40:14;42.45;;;21.55;;
76850;SDS011;65824;43.726;20.692;2023-02-15T06:42:43;45.10;;;21.45;;
76850;SDS011;65824;43.726;20.692;2023-02-15T06:45:09;38.55;;;20.20;;
76850;SDS011;65824;43.726;20.692;2023-02-15T06:47:35;35.22;;;18.75;;
76850;SDS011;65824;43.726;20.692;2023-02-15T06:50:00;34.97;;;17.73;;
76850;SDS011;65824;43.726;20.692;2023-02-15T06:52:29;36.63;;;19.75;;
76850;SDS011;65824;43.726;20.692;2023-02-15T06:54:54;42.25;;;21.65;;
76850;SDS011;65824;43.726;20.692;2023-02-15T06:57:21;42.03;;;22.35;;
76850;SDS011;65824;43.726;20.692;2023-02-15T06:59:48;41.25;;;20.27;;
76850;SDS011;65824;43.726;20.692;2023-02-15T07:02:13;33.38;;;17.85;;
76850;SDS011;65824;43.726;20.692;2023-02-15T07:04:40;31.33;;;15.95;;
76850;SDS011;65824;43.726;20.692;2023-02-15T07:07:09;30.67;;;15.38;;
76850;SDS011;65824;43.726;20.692;2023-02-15T07:09:38;30.67;;;16.67;;
76850;SDS011;65824;43.726;20.692;2023-02-15T07:12:04;32.13;;;15.82;;
76850;SDS011;65824;43.726;20.692;2023-02-15T07:14:48;31.15;;;14.75;;
76850;SDS011;65824;43.726;20.692;2023-02-15T07:17:13;31.55;;;15.20;;
76850;SDS011;65824;43.726;20.692;2023-02-15T07:19:39;32.50;;;15.57;;
76850;SDS011;65824;43.726;20.692;2023-02-15T07:22:04;30.00;;;16.05;;
76850;SDS011;65824;43.726;20.692;2023-02-15T07:24:30;28.25;;;15.38;;
76850;SDS011;65824;43.726;20.692;2023-02-15T07:26:56;29.95;;;15.82;;
76850;SDS011;65824;43.726;20.692;2023-02-15T07:29:22;33.35;;;15.75;;
76850;SDS011;65824;43.726;20.692;2023-02-15T07:31:48;29.98;;;15.32;;
76850;SDS011;65824;43.726;20.692;2023-02-15T07:34:13;29.38;;;15.23;;
76850;SDS011;65824;43.726;20.692;2023-02-15T07:36:39;36.20;;;15.55;;
76850;SDS011;65824;43.726;20.692;2023-02-15T07:39:05;29.38;;;14.52;;
76850;SDS011;65824;43.726;20.692;2023-02-15T07:41:31;29.85;;;15.20;;
76850;SDS011;65824;43.726;20.692;2023-02-15T07:43:57;30.23;;;15.52;;
76850;SDS011;65824;43.726;20.692;2023-02-15T07:46:23;30.23;;;15.88;;
76850;SDS011;65824;43.726;20.692;2023-02-15T07:48:49;33.58;;;16.25;;
76850;SDS011;65824;43.726;20.692;2023-02-15T07:51:15;28.55;;;15.45;;
76850;SDS011;65824;43.726;20.692;2023-02-15T07:53:41;26.90;;;13.75;;
76850;SDS011;65824;43.726;20.692;2023-02-15T07:56:08;25.10;;;13.95;;
76850;SDS011;65824;43.726;20.692;2023-02-15T07:58:36;34.85;;;16.58;;
76850;SDS011;65824;43.726;20.692;2023-02-15T08:01:50;34.55;;;17.17;;
76850;SDS011;65824;43.726;20.692;2023-02-15T08:04:10;32.63;;;16.25;;
76850;SDS011;65824;43.726;20.692;2023-02-15T08:06:37;33.08;;;16.48;;
76850;SDS011;65824;43.726;20.692;2023-02-15T08:09:08;29.92;;;15.38;;
76850;SDS011;65824;43.726;20.692;2023-02-15T08:11:35;32.28;;;16.30;;
76850;SDS011;65824;43.726;20.692;2023-02-15T08:14:09;33.47;;;16.90;;
76850;SDS011;65824;43.726;20.692;2023-02-15T08:16:37;31.80;;;16.25;;
76850;SDS011;65824;43.726;20.692;2023-02-15T08:21:37;35.47;;;18.67;;
76850;SDS011;65824;43.726;20.692;2023-02-15T08:24:07;29.05;;;15.52;;
76850;SDS011;65824;43.726;20.692;2023-02-15T08:26:34;33.35;;;16.08;;
76850;SDS011;65824;43.726;20.692;2023-02-15T08:29:01;33.50;;;14.73;;
76850;SDS011;65824;43.726;20.692;2023-02-15T08:31:27;28.45;;;13.90;;
76850;SDS011;65824;43.726;20.692;2023-02-15T08:33:54;29.77;;;15.25;;
76850;SDS011;65824;43.726;20.692;2023-02-15T08:36:21;28.50;;;15.02;;
76850;SDS011;65824;43.726;20.692;2023-02-15T08:41:19;30.02;;;14.43;;
76850;SDS011;65824;43.726;20.692;2023-02-15T08:43:51;32.00;;;13.88;;
76850;SDS011;65824;43.726;20.692;2023-02-15T08:46:18;31.33;;;14.38;;
76850;SDS011;65824;43.726;20.692;2023-02-15T08:48:44;25.98;;;13.25;;
76850;SDS011;65824;43.726;20.692;2023-02-15T08:51:13;26.00;;;12.48;;
76850;SDS011;65824;43.726;20.692;2023-02-15T08:53:40;28.05;;;13.73;;
76850;SDS011;65824;43.726;20.692;2023-02-15T08:56:06;25.27;;;13.52;;
76850;SDS011;65824;43.726;20.692;2023-02-15T08:58:32;29.95;;;13.90;;
76850;SDS011;65824;43.726;20.692;2023-02-15T09:00:58;27.65;;;15.27;;
76850;SDS011;65824;43.726;20.692;2023-02-15T09:03:24;30.23;;;15.52;;
76850;SDS011;65824;43.726;20.692;2023-02-15T09:05:57;30.08;;;14.65;;
76850;SDS011;65824;43.726;20.692;2023-02-15T09:08:27;27.80;;;13.70;;
76850;SDS011;65824;43.726;20.692;2023-02-15T09:10:54;28.30;;;14.20;;
76850;SDS011;65824;43.726;20.692;2023-02-15T09:13:28;31.10;;;14.30;;
76850;SDS011;65824;43.726;20.692;2023-02-15T09:16:03;31.45;;;15.30;;
76850;SDS011;65824;43.726;20.692;2023-02-15T09:18:34;29.48;;;15.55;;
76850;SDS011;65824;43.726;20.692;2023-02-15T09:21:06;33.50;;;15.20;;
76850;SDS011;65824;43.726;20.692;2023-02-15T09:23:39;33.92;;;15.70;;
76850;SDS011;65824;43.726;20.692;2023-02-15T09:26:06;31.40;;;15.60;;
76850;SDS011;65824;43.726;20.692;2023-02-15T09:28:35;32.65;;;14.77;;
76850;SDS011;65824;43.726;20.692;2023-02-15T09:31:05;30.92;;;15.23;;
76850;SDS011;65824;43.726;20.692;2023-02-15T09:33:30;27.92;;;14.50;;
76850;SDS011;65824;43.726;20.692;2023-02-15T09:35:56;26.13;;;13.65;;
76850;SDS011;65824;43.726;20.692;2023-02-15T09:38:22;26.45;;;13.32;;
76850;SDS011;65824;43.726;20.692;2023-02-15T09:40:49;26.17;;;12.38;;
76850;SDS011;65824;43.726;20.692;2023-02-15T09:43:55;22.33;;;11.27;;
76850;SDS011;65824;43.726;20.692;2023-02-15T09:49:45;23.40;;;12.00;;
76850;SDS011;65824;43.726;20.692;2023-02-15T10:00:41;22.67;;;10.82;;
76850;SDS011;65824;43.726;20.692;2023-02-15T10:12:55;24.73;;;10.13;;
76850;SDS011;65824;43.726;20.692;2023-02-15T10:15:26;22.55;;;10.75;;
76850;SDS011;65824;43.726;20.692;2023-02-15T10:18:26;19.63;;;10.30;;
76850;SDS011;65824;43.726;20.692;2023-02-15T10:26:46;25.00;;;11.30;;
76850;SDS011;65824;43.726;20.692;2023-02-15T10:34:39;22.48;;;11.57;;
76850;SDS011;65824;43.726;20.692;2023-02-15T10:40:06;20.55;;;10.90;;
76850;SDS011;65824;43.726;20.692;2023-02-15T10:45:57;21.90;;;11.63;;
76850;SDS011;65824;43.726;20.692;2023-02-15T10:48:33;19.45;;;9.95;;
76850;SDS011;65824;43.726;20.692;2023-02-15T10:51:26;27.05;;;12.00;;
76850;SDS011;65824;43.726;20.692;2023-02-15T10:54:01;19.60;;;10.63;;
76850;SDS011;65824;43.726;20.692;2023-02-15T10:56:51;25.33;;;11.00;;
76850;SDS011;65824;43.726;20.692;2023-02-15T11:07:52;23.73;;;11.23;;
76850;SDS011;65824;43.726;20.692;2023-02-15T11:13:14;24.52;;;11.65;;
76850;SDS011;65824;43.726;20.692;2023-02-15T11:15:52;22.30;;;10.43;;
76850;SDS011;65824;43.726;20.692;2023-02-15T11:21:13;23.15;;;11.27;;
76850;SDS011;65824;43.726;20.692;2023-02-15T11:23:46;26.90;;;12.57;;
76850;SDS011;65824;43.726;20.692;2023-02-15T11:26:13;22.48;;;11.40;;
76850;SDS011;65824;43.726;20.692;2023-02-15T11:29:01;20.25;;;10.57;;
76850;SDS011;65824;43.726;20.692;2023-02-15T11:31:59;24.25;;;12.88;;
76850;SDS011;65824;43.726;20.692;2023-02-15T11:35:01;21.38;;;11.68;;
76850;SDS011;65824;43.726;20.692;2023-02-15T11:40:54;21.08;;;10.55;;
76850;SDS011;65824;43.726;20.692;2023-02-15T11:45:33;22.80;;;12.18;;
76850;SDS011;65824;43.726;20.692;2023-02-15T11:48:00;22.33;;;11.18;;
76850;SDS011;65824;43.726;20.692;2023-02-15T11:50:32;18.58;;;10.57;;
76850;SDS011;65824;43.726;20.692;2023-02-15T11:52:58;19.38;;;10.25;;
76850;SDS011;65824;43.726;20.692;2023-02-15T11:55:29;21.00;;;11.45;;
76850;SDS011;65824;43.726;20.692;2023-02-15T12:00:31;20.10;;;10.85;;
76850;SDS011;65824;43.726;20.692;2023-02-15T12:03:01;21.65;;;11.20;;
76850;SDS011;65824;43.726;20.692;2023-02-15T12:05:39;24.15;;;12.18;;
76850;SDS011;65824;43.726;20.692;2023-02-15T12:08:13;23.63;;;11.15;;
76850;SDS011;65824;43.726;20.692;2023-02-15T12:10:44;23.20;;;11.85;;
76850;SDS011;65824;43.726;20.692;2023-02-15T12:13:21;21.17;;;10.93;;
76850;SDS011;65824;43.726;20.692;2023-02-15T12:15:47;22.67;;;12.07;;
76850;SDS011;65824;43.726;20.692;2023-02-15T12:18:34;25.70;;;12.40;;
76850;SDS011;65824;43.726;20.692;2023-02-15T12:21:11;23.25;;;12.48;;
76850;SDS011;65824;43.726;20.692;2023-02-15T12:23:48;21.13;;;11.00;;
76850;SDS011;65824;43.726;20.692;2023-02-15T12:26:23;24.35;;;11.88;;
76850;SDS011;65824;43.726;20.692;2023-02-15T12:28:50;26.98;;;13.25;;
76850;SDS011;65824;43.726;20.692;2023-02-15T12:37:10;27.25;;;11.88;;
76850;SDS011;65824;43.726;20.692;2023-02-15T12:40:00;23.58;;;12.60;;
76850;SDS011;65824;43.726;20.692;2023-02-15T12:42:28;24.90;;;12.73;;
76850;SDS011;65824;43.726;20.692;2023-02-15T12:50:33;23.92;;;12.48;;
76850;SDS011;65824;43.726;20.692;2023-02-15T12:53:06;21.98;;;11.93;;
76850;SDS011;65824;43.726;20.692;2023-02-15T12:55:36;23.55;;;12.18;;
76850;SDS011;65824;43.726;20.692;2023-02-15T12:58:15;21.67;;;11.27;;
76850;SDS011;65824;43.726;20.692;2023-02-15T13:00:43;23.10;;;11.50;;
76850;SDS011;65824;43.726;20.692;2023-02-15T13:03:16;21.65;;;12.52;;
76850;SDS011;65824;43.726;20.692;2023-02-15T13:05:53;21.40;;;11.32;;
76850;SDS011;65824;43.726;20.692;2023-02-15T13:08:21;22.17;;;11.55;;
76850;SDS011;65824;43.726;20.692;2023-02-15T13:10:58;21.42;;;11.55;;
76850;SDS011;65824;43.726;20.692;2023-02-15T13:14:38;20.38;;;10.57;;
76850;SDS011;65824;43.726;20.692;2023-02-15T13:16:48;19.83;;;9.98;;
76850;SDS011;65824;43.726;20.692;2023-02-15T13:19:24;25.15;;;11.38;;
76850;SDS011;65824;43.726;20.692;2023-02-15T13:22:05;22.35;;;11.35;;
76850;SDS011;65824;43.726;20.692;2023-02-15T13:24:51;22.50;;;10.82;;
76850;SDS011;65824;43.726;20.692;2023-02-15T13:27:40;20.98;;;11.00;;
76850;SDS011;65824;43.726;20.692;2023-02-15T13:30:30;22.05;;;11.43;;
76850;SDS011;65824;43.726;20.692;2023-02-15T13:33:03;21.70;;;11.35;;
76850;SDS011;65824;43.726;20.692;2023-02-15T13:41:03;25.13;;;11.50;;
76850;SDS011;65824;43.726;20.692;2023-02-15T13:49:33;22.88;;;11.32;;
76850;SDS011;65824;43.726;20.692;2023-02-15T13:52:27;23.38;;;11.40;;
76850;SDS011;65824;43.726;20.692;2023-02-15T14:08:47;27.67;;;12.88;;
76850;SDS011;65824;43.726;20.692;2023-02-15T14:17:55;25.20;;;13.05;;
76850;SDS011;65824;43.726;20.692;2023-02-15T14:25:54;23.40;;;13.45;;
76850;SDS011;65824;43.726;20.692;2023-02-15T14:28:31;28.02;;;14.27;;
76850;SDS011;65824;43.726;20.692;2023-02-15T14:31:02;32.38;;;15.02;;
76850;SDS011;65824;43.726;20.692;2023-02-15T14:33:31;35.13;;;15.15;;
76850;SDS011;65824;43.726;20.692;2023-02-15T14:36:03;25.05;;;13.27;;
76850;SDS011;65824;43.726;20.692;2023-02-15T14:41:28;26.38;;;13.63;;
76850;SDS011;65824;43.726;20.692;2023-02-15T14:44:15;26.63;;;12.18;;
76850;SDS011;65824;43.726;20.692;2023-02-15T14:49:32;26.90;;;13.45;;
76850;SDS011;65824;43.726;20.692;2023-02-15T14:52:05;26.33;;;13.60;;
76850;SDS011;65824;43.726;20.692;2023-02-15T14:59:55;25.08;;;13.05;;
76850;SDS011;65824;43.726;20.692;2023-02-15T15:08:00;29.02;;;14.35;;
76850;SDS011;65824;43.726;20.692;2023-02-15T15:10:45;29.50;;;14.88;;
76850;SDS011;65824;43.726;20.692;2023-02-15T15:21:09;27.52;;;13.55;;
76850;SDS011;65824;43.726;20.692;2023-02-15T15:23:39;32.88;;;14.27;;
76850;SDS011;65824;43.726;20.692;2023-02-15T15:26:23;30.70;;;16.17;;
76850;SDS011;65824;43.726;20.692;2023-02-15T15:31:27;36.95;;;18.17;;
76850;SDS011;65824;43.726;20.692;2023-02-15T15:45:33;38.63;;;19.35;;
76850;SDS011;65824;43.726;20.692;2023-02-15T15:48:28;38.58;;;19.20;;
76850;SDS011;65824;43.726;20.692;2023-02-15T15:50:59;35.45;;;18.70;;
76850;SDS011;65824;43.726;20.692;2023-02-15T15:53:27;43.70;;;21.70;;
76850;SDS011;65824;43.726;20.692;2023-02-15T15:55:59;38.42;;;19.92;;
76850;SDS011;65824;43.726;20.692;2023-02-15T15:58:32;35.63;;;18.48;;
76850;SDS011;65824;43.726;20.692;2023-02-15T16:01:03;39.63;;;19.83;;
76850;SDS011;65824;43.726;20.692;2023-02-15T16:03:47;42.00;;;20.30;;
76850;SDS011;65824;43.726;20.692;2023-02-15T16:06:29;44.45;;;21.38;;
76850;SDS011;65824;43.726;20.692;2023-02-15T16:09:18;48.70;;;22.85;;
76850;SDS011;65824;43.726;20.692;2023-02-15T16:11:49;47.17;;;23.17;;
76850;SDS011;65824;43.726;20.692;2023-02-15T16:16:57;48.05;;;23.88;;
76850;SDS011;65824;43.726;20.692;2023-02-15T16:19:32;45.28;;;23.00;;
76850;SDS011;65824;43.726;20.692;2023-02-15T16:21:59;44.95;;;23.45;;
76850;SDS011;65824;43.726;20.692;2023-02-15T16:32:05;61.97;;;29.73;;
76850;SDS011;65824;43.726;20.692;2023-02-15T16:35:00;59.47;;;30.13;;
76850;SDS011;65824;43.726;20.692;2023-02-15T16:37:28;67.40;;;32.55;;
76850;SDS011;65824;43.726;20.692;2023-02-15T16:39:57;72.72;;;36.03;;
76850;SDS011;65824;43.726;20.692;2023-02-15T16:47:33;64.05;;;30.80;;
76850;SDS011;65824;43.726;20.692;2023-02-15T16:50:05;68.40;;;33.08;;
76850;SDS011;65824;43.726;20.692;2023-02-15T16:52:32;70.38;;;33.78;;
76850;SDS011;65824;43.726;20.692;2023-02-15T16:55:05;81.60;;;37.10;;
76850;SDS011;65824;43.726;20.692;2023-02-15T16:57:32;68.22;;;34.90;;
76850;SDS011;65824;43.726;20.692;2023-02-15T17:00:04;62.42;;;31.45;;
76850;SDS011;65824;43.726;20.692;2023-02-15T17:03:00;61.00;;;30.38;;
76850;SDS011;65824;43.726;20.692;2023-02-15T17:05:48;49.35;;;25.85;;
76850;SDS011;65824;43.726;20.692;2023-02-15T17:08:24;56.20;;;27.48;;
76850;SDS011;65824;43.726;20.692;2023-02-15T17:11:17;57.75;;;27.83;;
76850;SDS011;65824;43.726;20.692;2023-02-15T17:16:58;69.18;;;33.70;;
76850;SDS011;65824;43.726;20.692;2023-02-15T17:19:25;77.40;;;37.78;;
76850;SDS011;65824;43.726;20.692;2023-02-15T17:21:57;91.05;;;45.45;;
76850;SDS011;65824;43.726;20.692;2023-02-15T17:24:45;107.00;;;47.58;;
76850;SDS011;65824;43.726;20.692;2023-02-15T17:27:15;100.60;;;45.40;;
76850;SDS011;65824;43.726;20.692;2023-02-15T17:29:56;89.85;;;43.35;;
76850;SDS011;65824;43.726;20.692;2023-02-15T17:32:26;90.85;;;43.33;;
76850;SDS011;65824;43.726;20.692;2023-02-15T17:37:43;86.60;;;42.80;;
76850;SDS011;65824;43.726;20.692;2023-02-15T17:40:47;68.32;;;34.55;;
76850;SDS011;65824;43.726;20.692;2023-02-15T17:43:13;65.05;;;32.65;;
76850;SDS011;65824;43.726;20.692;2023-02-15T17:45:42;70.30;;;37.03;;
76850;SDS011;65824;43.726;20.692;2023-02-15T17:51:05;66.45;;;33.58;;
76850;SDS011;65824;43.726;20.692;2023-02-15T17:53:32;61.92;;;28.20;;
76850;SDS011;65824;43.726;20.692;2023-02-15T17:55:59;62.30;;;28.00;;
76850;SDS011;65824;43.726;20.692;2023-02-15T17:58:34;63.40;;;32.38;;
76850;SDS011;65824;43.726;20.692;2023-02-15T18:01:04;65.00;;;34.45;;